sensor_id;sensor_type;location;lat;lon;timestamp;P1;durP1;ratioP1;P2;durP2;ratioP2
80315;SDS011;71201;47.064;15.448;2024-01-30T00:05:13;12.82;;;7.45;;
80315;SDS011;71201;47.064;15.448;2024-01-30T00:10:03;12.05;;;5.45;;
80315;SDS011;71201;47.064;15.448;2024-01-30T00:28:17;11.05;;;5.55;;
80315;SDS011;71201;47.064;15.448;2024-01-30T00:35:37;14.20;;;6.65;;
80315;SDS011;71201;47.064;15.448;2024-01-30T00:42:48;13.10;;;7.38;;
80315;SDS011;71201;47.064;15.448;2024-01-30T00:52:46;16.02;;;8.25;;
80315;SDS011;71201;47.064;15.448;2024-01-30T00:59:54;19.33;;;9.07;;
80315;SDS011;71201;47.064;15.448;2024-01-30T01:04:19;17.02;;;7.80;;
80315;SDS011;71201;47.064;15.448;2024-01-30T01:11:18;16.25;;;7.68;;
80315;SDS011;71201;47.064;15.448;2024-01-30T01:18:37;15.48;;;9.02;;
80315;SDS011;71201;47.064;15.448;2024-01-30T01:43:02;14.95;;;6.65;;
80315;SDS011;71201;47.064;15.448;2024-01-30T01:55:17;12.70;;;7.22;;
80315;SDS011;71201;47.064;15.448;2024-01-30T02:02:26;13.95;;;7.03;;
80315;SDS011;71201;47.064;15.448;2024-01-30T02:19:05;17.98;;;8.27;;
80315;SDS011;71201;47.064;15.448;2024-01-30T02:28:52;19.35;;;9.25;;
80315;SDS011;71201;47.064;15.448;2024-01-30T02:45:14;26.45;;;13.50;;
80315;SDS011;71201;47.064;15.448;2024-01-30T03:23:49;26.00;;;12.45;;
80315;SDS011;71201;47.064;15.448;2024-01-30T03:28:18;25.25;;;11.52;;
80315;SDS011;71201;47.064;15.448;2024-01-30T03:51:47;22.25;;;10.55;;
80315;SDS011;71201;47.064;15.448;2024-01-30T04:03:17;15.88;;;8.60;;
80315;SDS011;71201;47.064;15.448;2024-01-30T04:10:33;22.65;;;10.10;;
80315;SDS011;71201;47.064;15.448;2024-01-30T04:39:10;15.70;;;8.52;;
80315;SDS011;71201;47.064;15.448;2024-01-30T04:46:46;14.27;;;6.85;;
80315;SDS011;71201;47.064;15.448;2024-01-30T04:56:37;16.38;;;7.88;;
80315;SDS011;71201;47.064;15.448;2024-01-30T05:01:27;14.40;;;7.18;;
80315;SDS011;71201;47.064;15.448;2024-01-30T05:03:52;14.48;;;6.25;;
80315;SDS011;71201;47.064;15.448;2024-01-30T05:06:24;15.32;;;7.13;;
80315;SDS011;71201;47.064;15.448;2024-01-30T05:08:50;13.75;;;6.90;;
80315;SDS011;71201;47.064;15.448;2024-01-30T05:11:15;13.60;;;6.20;;
80315;SDS011;71201;47.064;15.448;2024-01-30T05:13:40;16.60;;;7.10;;
80315;SDS011;71201;47.064;15.448;2024-01-30T05:16:06;10.40;;;7.00;;
80315;SDS011;71201;47.064;15.448;2024-01-30T05:18:31;15.88;;;6.82;;
80315;SDS011;71201;47.064;15.448;2024-01-30T05:20:56;17.13;;;7.82;;
80315;SDS011;71201;47.064;15.448;2024-01-30T05:23:22;12.50;;;6.33;;
80315;SDS011;71201;47.064;15.448;2024-01-30T05:25:47;17.02;;;7.47;;
80315;SDS011;71201;47.064;15.448;2024-01-30T05:28:12;15.27;;;7.27;;
80315;SDS011;71201;47.064;15.448;2024-01-30T05:30:38;16.92;;;7.57;;
80315;SDS011;71201;47.064;15.448;2024-01-30T05:33:03;14.63;;;8.27;;
80315;SDS011;71201;47.064;15.448;2024-01-30T05:35:29;14.57;;;7.90;;
80315;SDS011;71201;47.064;15.448;2024-01-30T05:37:54;13.25;;;7.65;;
80315;SDS011;71201;47.064;15.448;2024-01-30T05:40:19;17.95;;;7.75;;
80315;SDS011;71201;47.064;15.448;2024-01-30T05:42:45;14.07;;;7.57;;
80315;SDS011;71201;47.064;15.448;2024-01-30T05:45:10;19.07;;;7.80;;
80315;SDS011;71201;47.064;15.448;2024-01-30T05:47:35;17.40;;;7.68;;
80315;SDS011;71201;47.064;15.448;2024-01-30T05:50:01;16.73;;;9.37;;
80315;SDS011;71201;47.064;15.448;2024-01-30T05:52:26;18.30;;;8.27;;
80315;SDS011;71201;47.064;15.448;2024-01-30T05:54:51;19.33;;;9.30;;
80315;SDS011;71201;47.064;15.448;2024-01-30T05:57:16;15.40;;;8.00;;
80315;SDS011;71201;47.064;15.448;2024-01-30T05:59:42;14.93;;;7.40;;
80315;SDS011;71201;47.064;15.448;2024-01-30T06:02:09;16.90;;;7.60;;
80315;SDS011;71201;47.064;15.448;2024-01-30T06:04:35;14.23;;;7.25;;
80315;SDS011;71201;47.064;15.448;2024-01-30T06:07:00;16.38;;;7.35;;
80315;SDS011;71201;47.064;15.448;2024-01-30T06:09:26;14.02;;;7.03;;
80315;SDS011;71201;47.064;15.448;2024-01-30T06:11:52;14.43;;;7.03;;
80315;SDS011;71201;47.064;15.448;2024-01-30T06:14:17;15.05;;;7.10;;
80315;SDS011;71201;47.064;15.448;2024-01-30T06:16:42;15.80;;;6.73;;
80315;SDS011;71201;47.064;15.448;2024-01-30T06:19:08;12.97;;;6.77;;
80315;SDS011;71201;47.064;15.448;2024-01-30T06:21:33;13.80;;;6.80;;
80315;SDS011;71201;47.064;15.448;2024-01-30T06:24:01;16.98;;;7.97;;
80315;SDS011;71201;47.064;15.448;2024-01-30T06:26:27;13.15;;;7.40;;
80315;SDS011;71201;47.064;15.448;2024-01-30T06:28:52;13.20;;;6.73;;
80315;SDS011;71201;47.064;15.448;2024-01-30T06:31:17;16.23;;;7.10;;
80315;SDS011;71201;47.064;15.448;2024-01-30T06:33:43;13.32;;;6.90;;
80315;SDS011;71201;47.064;15.448;2024-01-30T06:36:08;15.23;;;7.13;;
80315;SDS011;71201;47.064;15.448;2024-01-30T06:38:33;13.57;;;7.73;;
80315;SDS011;71201;47.064;15.448;2024-01-30T06:40:58;13.32;;;6.85;;
80315;SDS011;71201;47.064;15.448;2024-01-30T06:43:24;16.85;;;7.57;;
80315;SDS011;71201;47.064;15.448;2024-01-30T06:45:49;15.53;;;7.40;;
80315;SDS011;71201;47.064;15.448;2024-01-30T06:48:15;23.10;;;9.50;;
80315;SDS011;71201;47.064;15.448;2024-01-30T06:50:40;17.23;;;7.85;;
80315;SDS011;71201;47.064;15.448;2024-01-30T06:53:06;14.10;;;7.37;;
80315;SDS011;71201;47.064;15.448;2024-01-30T06:55:31;17.87;;;7.87;;
80315;SDS011;71201;47.064;15.448;2024-01-30T06:57:56;17.00;;;7.78;;
80315;SDS011;71201;47.064;15.448;2024-01-30T07:00:21;15.73;;;8.27;;
80315;SDS011;71201;47.064;15.448;2024-01-30T07:02:48;20.65;;;9.75;;
80315;SDS011;71201;47.064;15.448;2024-01-30T07:05:13;18.23;;;8.38;;
80315;SDS011;71201;47.064;15.448;2024-01-30T07:07:39;17.17;;;8.30;;
80315;SDS011;71201;47.064;15.448;2024-01-30T07:10:04;19.87;;;8.80;;
80315;SDS011;71201;47.064;15.448;2024-01-30T07:12:30;20.40;;;9.02;;
80315;SDS011;71201;47.064;15.448;2024-01-30T07:14:55;21.70;;;9.55;;
80315;SDS011;71201;47.064;15.448;2024-01-30T07:17:21;25.85;;;10.88;;
80315;SDS011;71201;47.064;15.448;2024-01-30T07:19:46;21.50;;;10.52;;
80315;SDS011;71201;47.064;15.448;2024-01-30T07:22:12;20.15;;;10.10;;
80315;SDS011;71201;47.064;15.448;2024-01-30T07:24:42;22.50;;;10.25;;
80315;SDS011;71201;47.064;15.448;2024-01-30T07:27:07;15.70;;;9.02;;
80315;SDS011;71201;47.064;15.448;2024-01-30T07:29:32;18.60;;;9.73;;
80315;SDS011;71201;47.064;15.448;2024-01-30T07:31:58;19.30;;;9.48;;
80315;SDS011;71201;47.064;15.448;2024-01-30T07:34:23;20.97;;;9.83;;
80315;SDS011;71201;47.064;15.448;2024-01-30T07:36:48;22.23;;;9.60;;
80315;SDS011;71201;47.064;15.448;2024-01-30T07:39:14;24.45;;;12.15;;
80315;SDS011;71201;47.064;15.448;2024-01-30T07:41:39;30.85;;;13.23;;
80315;SDS011;71201;47.064;15.448;2024-01-30T07:44:04;29.63;;;13.17;;
80315;SDS011;71201;47.064;15.448;2024-01-30T07:46:30;20.92;;;11.45;;
80315;SDS011;71201;47.064;15.448;2024-01-30T07:48:55;20.88;;;11.10;;
80315;SDS011;71201;47.064;15.448;2024-01-30T07:51:22;22.60;;;12.43;;
80315;SDS011;71201;47.064;15.448;2024-01-30T07:53:47;22.37;;;12.60;;
80315;SDS011;71201;47.064;15.448;2024-01-30T07:56:12;29.37;;;12.57;;
80315;SDS011;71201;47.064;15.448;2024-01-30T07:58:38;30.23;;;14.20;;
80315;SDS011;71201;47.064;15.448;2024-01-30T08:01:03;25.58;;;12.27;;
80315;SDS011;71201;47.064;15.448;2024-01-30T08:03:28;21.00;;;11.68;;
80315;SDS011;71201;47.064;15.448;2024-01-30T08:05:54;29.23;;;13.47;;
80315;SDS011;71201;47.064;15.448;2024-01-30T08:08:19;23.38;;;12.52;;
80315;SDS011;71201;47.064;15.448;2024-01-30T08:10:44;24.88;;;12.52;;
80315;SDS011;71201;47.064;15.448;2024-01-30T08:13:10;23.85;;;11.50;;
80315;SDS011;71201;47.064;15.448;2024-01-30T08:15:35;24.87;;;12.47;;
80315;SDS011;71201;47.064;15.448;2024-01-30T08:18:00;24.70;;;12.83;;
80315;SDS011;71201;47.064;15.448;2024-01-30T08:20:26;24.40;;;13.18;;
80315;SDS011;71201;47.064;15.448;2024-01-30T08:22:51;29.15;;;13.07;;
80315;SDS011;71201;47.064;15.448;2024-01-30T08:25:16;25.30;;;11.30;;
80315;SDS011;71201;47.064;15.448;2024-01-30T08:27:42;23.17;;;11.15;;
80315;SDS011;71201;47.064;15.448;2024-01-30T08:30:07;23.93;;;11.50;;
80315;SDS011;71201;47.064;15.448;2024-01-30T08:32:33;26.65;;;11.50;;
80315;SDS011;71201;47.064;15.448;2024-01-30T08:34:58;23.55;;;12.95;;
80315;SDS011;71201;47.064;15.448;2024-01-30T08:37:23;23.05;;;12.80;;
80315;SDS011;71201;47.064;15.448;2024-01-30T08:39:48;24.33;;;12.32;;
80315;SDS011;71201;47.064;15.448;2024-01-30T08:42:14;25.20;;;10.93;;
80315;SDS011;71201;47.064;15.448;2024-01-30T08:44:39;23.05;;;11.88;;
80315;SDS011;71201;47.064;15.448;2024-01-30T08:47:04;22.80;;;11.40;;
80315;SDS011;71201;47.064;15.448;2024-01-30T08:49:30;25.77;;;12.35;;
80315;SDS011;71201;47.064;15.448;2024-01-30T08:51:55;22.30;;;11.52;;
80315;SDS011;71201;47.064;15.448;2024-01-30T08:54:20;27.33;;;12.87;;
80315;SDS011;71201;47.064;15.448;2024-01-30T08:56:46;24.05;;;11.55;;
80315;SDS011;71201;47.064;15.448;2024-01-30T08:59:11;28.33;;;11.10;;
80315;SDS011;71201;47.064;15.448;2024-01-30T09:01:36;23.20;;;11.02;;
80315;SDS011;71201;47.064;15.448;2024-01-30T09:04:02;20.27;;;10.90;;
80315;SDS011;71201;47.064;15.448;2024-01-30T09:06:27;24.50;;;11.13;;
80315;SDS011;71201;47.064;15.448;2024-01-30T09:08:53;18.08;;;10.25;;
80315;SDS011;71201;47.064;15.448;2024-01-30T09:11:19;23.10;;;11.90;;
80315;SDS011;71201;47.064;15.448;2024-01-30T09:13:44;24.07;;;10.70;;
80315;SDS011;71201;47.064;15.448;2024-01-30T09:16:09;24.23;;;10.75;;
80315;SDS011;71201;47.064;15.448;2024-01-30T09:18:35;23.77;;;11.50;;
80315;SDS011;71201;47.064;15.448;2024-01-30T09:21:00;20.47;;;10.40;;
80315;SDS011;71201;47.064;15.448;2024-01-30T09:23:27;54.80;;;15.50;;
80315;SDS011;71201;47.064;15.448;2024-01-30T09:25:52;25.80;;;11.82;;
80315;SDS011;71201;47.064;15.448;2024-01-30T09:28:18;64.75;;;16.63;;
80315;SDS011;71201;47.064;15.448;2024-01-30T09:30:43;61.88;;;15.90;;
80315;SDS011;71201;47.064;15.448;2024-01-30T09:33:08;23.55;;;11.43;;
80315;SDS011;71201;47.064;15.448;2024-01-30T09:35:34;24.15;;;13.85;;
80315;SDS011;71201;47.064;15.448;2024-01-30T09:37:59;23.10;;;12.10;;
80315;SDS011;71201;47.064;15.448;2024-01-30T09:40:24;27.23;;;13.00;;
80315;SDS011;71201;47.064;15.448;2024-01-30T09:42:50;22.48;;;11.75;;
80315;SDS011;71201;47.064;15.448;2024-01-30T09:45:15;25.85;;;11.07;;
80315;SDS011;71201;47.064;15.448;2024-01-30T09:47:42;23.58;;;11.35;;
80315;SDS011;71201;47.064;15.448;2024-01-30T09:50:08;21.80;;;10.75;;
80315;SDS011;71201;47.064;15.448;2024-01-30T09:52:34;24.75;;;10.70;;
80315;SDS011;71201;47.064;15.448;2024-01-30T09:55:00;22.38;;;9.85;;
80315;SDS011;71201;47.064;15.448;2024-01-30T09:57:26;21.83;;;9.75;;
80315;SDS011;71201;47.064;15.448;2024-01-30T09:59:51;17.85;;;10.13;;
80315;SDS011;71201;47.064;15.448;2024-01-30T10:02:19;20.88;;;8.98;;
80315;SDS011;71201;47.064;15.448;2024-01-30T10:04:44;20.17;;;9.30;;
80315;SDS011;71201;47.064;15.448;2024-01-30T10:07:09;22.40;;;10.00;;
80315;SDS011;71201;47.064;15.448;2024-01-30T10:09:36;21.63;;;10.60;;
80315;SDS011;71201;47.064;15.448;2024-01-30T10:12:01;20.98;;;9.13;;
80315;SDS011;71201;47.064;15.448;2024-01-30T10:14:28;23.50;;;10.05;;
80315;SDS011;71201;47.064;15.448;2024-01-30T10:16:54;20.33;;;8.80;;
80315;SDS011;71201;47.064;15.448;2024-01-30T10:19:20;22.30;;;10.40;;
80315;SDS011;71201;47.064;15.448;2024-01-30T10:21:45;17.15;;;9.48;;
80315;SDS011;71201;47.064;15.448;2024-01-30T10:24:11;23.60;;;9.68;;
80315;SDS011;71201;47.064;15.448;2024-01-30T10:26:38;21.48;;;11.15;;
80315;SDS011;71201;47.064;15.448;2024-01-30T10:29:04;22.92;;;9.10;;
80315;SDS011;71201;47.064;15.448;2024-01-30T10:31:29;22.90;;;10.63;;
80315;SDS011;71201;47.064;15.448;2024-01-30T10:33:55;17.85;;;10.30;;
80315;SDS011;71201;47.064;15.448;2024-01-30T10:36:20;22.92;;;9.48;;
80315;SDS011;71201;47.064;15.448;2024-01-30T10:38:47;18.63;;;9.95;;
80315;SDS011;71201;47.064;15.448;2024-01-30T10:41:15;16.63;;;8.52;;
80315;SDS011;71201;47.064;15.448;2024-01-30T10:43:44;22.63;;;8.93;;
80315;SDS011;71201;47.064;15.448;2024-01-30T10:48:43;16.67;;;8.32;;
80315;SDS011;71201;47.064;15.448;2024-01-30T10:51:12;17.60;;;8.40;;
80315;SDS011;71201;47.064;15.448;2024-01-30T10:53:38;20.27;;;8.60;;
80315;SDS011;71201;47.064;15.448;2024-01-30T10:56:04;13.88;;;7.68;;
80315;SDS011;71201;47.064;15.448;2024-01-30T10:58:29;18.00;;;8.38;;
80315;SDS011;71201;47.064;15.448;2024-01-30T11:00:55;16.67;;;8.13;;
80315;SDS011;71201;47.064;15.448;2024-01-30T11:03:20;21.48;;;8.43;;
80315;SDS011;71201;47.064;15.448;2024-01-30T11:05:49;19.58;;;8.70;;
80315;SDS011;71201;47.064;15.448;2024-01-30T11:08:14;20.88;;;8.82;;
80315;SDS011;71201;47.064;15.448;2024-01-30T11:10:46;19.70;;;9.33;;
80315;SDS011;71201;47.064;15.448;2024-01-30T11:13:13;20.17;;;10.15;;
80315;SDS011;71201;47.064;15.448;2024-01-30T11:15:38;19.00;;;8.73;;
80315;SDS011;71201;47.064;15.448;2024-01-30T11:18:05;19.83;;;8.88;;
80315;SDS011;71201;47.064;15.448;2024-01-30T11:20:31;16.25;;;7.82;;
80315;SDS011;71201;47.064;15.448;2024-01-30T11:22:56;18.40;;;7.60;;
80315;SDS011;71201;47.064;15.448;2024-01-30T11:25:22;17.83;;;8.93;;
80315;SDS011;71201;47.064;15.448;2024-01-30T11:27:52;17.30;;;8.30;;
80315;SDS011;71201;47.064;15.448;2024-01-30T11:30:28;42.60;;;11.18;;
80315;SDS011;71201;47.064;15.448;2024-01-30T11:33:10;15.57;;;8.85;;
80315;SDS011;71201;47.064;15.448;2024-01-30T11:35:37;20.77;;;8.55;;
80315;SDS011;71201;47.064;15.448;2024-01-30T11:38:02;15.30;;;7.85;;
80315;SDS011;71201;47.064;15.448;2024-01-30T11:40:28;18.58;;;8.10;;
80315;SDS011;71201;47.064;15.448;2024-01-30T11:42:55;16.25;;;8.07;;
80315;SDS011;71201;47.064;15.448;2024-01-30T11:45:20;15.20;;;8.18;;
80315;SDS011;71201;47.064;15.448;2024-01-30T11:47:45;17.02;;;8.30;;
80315;SDS011;71201;47.064;15.448;2024-01-30T11:50:11;16.67;;;7.95;;
80315;SDS011;71201;47.064;15.448;2024-01-30T11:52:36;18.77;;;9.90;;
80315;SDS011;71201;47.064;15.448;2024-01-30T11:55:02;15.23;;;8.82;;
80315;SDS011;71201;47.064;15.448;2024-01-30T11:57:27;13.90;;;7.78;;
80315;SDS011;71201;47.064;15.448;2024-01-30T11:59:53;16.47;;;8.13;;
80315;SDS011;71201;47.064;15.448;2024-01-30T12:02:18;18.38;;;8.38;;
80315;SDS011;71201;47.064;15.448;2024-01-30T12:04:43;12.15;;;8.02;;
80315;SDS011;71201;47.064;15.448;2024-01-30T12:07:09;17.13;;;8.02;;
80315;SDS011;71201;47.064;15.448;2024-01-30T12:09:34;16.10;;;7.88;;
80315;SDS011;71201;47.064;15.448;2024-01-30T12:11:59;22.95;;;8.63;;
80315;SDS011;71201;47.064;15.448;2024-01-30T12:14:25;14.70;;;7.13;;
80315;SDS011;71201;47.064;15.448;2024-01-30T12:16:51;14.27;;;7.20;;
80315;SDS011;71201;47.064;15.448;2024-01-30T12:19:23;15.32;;;7.57;;
80315;SDS011;71201;47.064;15.448;2024-01-30T12:21:53;16.00;;;7.20;;
80315;SDS011;71201;47.064;15.448;2024-01-30T12:24:18;17.65;;;7.20;;
80315;SDS011;71201;47.064;15.448;2024-01-30T12:26:43;15.48;;;7.85;;
80315;SDS011;71201;47.064;15.448;2024-01-30T12:29:09;12.95;;;7.78;;
80315;SDS011;71201;47.064;15.448;2024-01-30T12:31:34;14.43;;;7.33;;
80315;SDS011;71201;47.064;15.448;2024-01-30T12:34:00;13.32;;;7.30;;
80315;SDS011;71201;47.064;15.448;2024-01-30T12:36:25;12.52;;;6.78;;
80315;SDS011;71201;47.064;15.448;2024-01-30T12:38:50;13.52;;;8.07;;
80315;SDS011;71201;47.064;15.448;2024-01-30T12:41:16;14.90;;;7.78;;
80315;SDS011;71201;47.064;15.448;2024-01-30T12:43:41;15.27;;;7.43;;
80315;SDS011;71201;47.064;15.448;2024-01-30T12:46:07;15.25;;;6.50;;
80315;SDS011;71201;47.064;15.448;2024-01-30T12:48:32;11.95;;;7.60;;
80315;SDS011;71201;47.064;15.448;2024-01-30T12:50:57;14.73;;;7.18;;
80315;SDS011;71201;47.064;15.448;2024-01-30T12:53:23;13.38;;;6.72;;
80315;SDS011;71201;47.064;15.448;2024-01-30T12:55:48;15.57;;;8.07;;
80315;SDS011;71201;47.064;15.448;2024-01-30T12:58:14;11.20;;;7.35;;
80315;SDS011;71201;47.064;15.448;2024-01-30T13:00:40;14.50;;;6.68;;
80315;SDS011;71201;47.064;15.448;2024-01-30T13:03:05;12.60;;;7.38;;
80315;SDS011;71201;47.064;15.448;2024-01-30T13:05:31;17.02;;;6.57;;
80315;SDS011;71201;47.064;15.448;2024-01-30T13:07:57;13.45;;;7.10;;
80315;SDS011;71201;47.064;15.448;2024-01-30T13:10:22;13.20;;;6.40;;
80315;SDS011;71201;47.064;15.448;2024-01-30T13:12:47;17.80;;;8.02;;
80315;SDS011;71201;47.064;15.448;2024-01-30T13:15:13;15.95;;;8.32;;
80315;SDS011;71201;47.064;15.448;2024-01-30T13:17:38;15.65;;;7.20;;
80315;SDS011;71201;47.064;15.448;2024-01-30T13:20:04;13.73;;;6.28;;
80315;SDS011;71201;47.064;15.448;2024-01-30T13:22:29;14.60;;;6.88;;
80315;SDS011;71201;47.064;15.448;2024-01-30T13:24:54;12.83;;;6.87;;
80315;SDS011;71201;47.064;15.448;2024-01-30T13:27:20;14.17;;;7.40;;
80315;SDS011;71201;47.064;15.448;2024-01-30T13:29:45;14.55;;;6.95;;
80315;SDS011;71201;47.064;15.448;2024-01-30T13:32:11;11.87;;;6.63;;
80315;SDS011;71201;47.064;15.448;2024-01-30T13:34:36;12.43;;;7.43;;
80315;SDS011;71201;47.064;15.448;2024-01-30T13:37:01;17.13;;;7.20;;
80315;SDS011;71201;47.064;15.448;2024-01-30T13:39:27;11.43;;;6.00;;
80315;SDS011;71201;47.064;15.448;2024-01-30T13:41:52;17.67;;;7.18;;
80315;SDS011;71201;47.064;15.448;2024-01-30T13:44:18;14.33;;;6.23;;
80315;SDS011;71201;47.064;15.448;2024-01-30T13:46:44;12.32;;;6.47;;
80315;SDS011;71201;47.064;15.448;2024-01-30T13:49:09;16.73;;;6.47;;
80315;SDS011;71201;47.064;15.448;2024-01-30T13:51:34;11.27;;;6.35;;
80315;SDS011;71201;47.064;15.448;2024-01-30T13:54:00;10.67;;;5.87;;
80315;SDS011;71201;47.064;15.448;2024-01-30T13:56:25;10.07;;;5.83;;
80315;SDS011;71201;47.064;15.448;2024-01-30T13:58:51;10.70;;;6.80;;
80315;SDS011;71201;47.064;15.448;2024-01-30T14:01:17;11.20;;;6.28;;
80315;SDS011;71201;47.064;15.448;2024-01-30T14:03:42;17.05;;;7.38;;
80315;SDS011;71201;47.064;15.448;2024-01-30T14:06:07;12.70;;;6.70;;
80315;SDS011;71201;47.064;15.448;2024-01-30T14:08:33;13.68;;;7.47;;
80315;SDS011;71201;47.064;15.448;2024-01-30T14:10:58;16.30;;;6.65;;
80315;SDS011;71201;47.064;15.448;2024-01-30T14:13:23;12.90;;;6.85;;
80315;SDS011;71201;47.064;15.448;2024-01-30T14:15:50;16.40;;;7.30;;
80315;SDS011;71201;47.064;15.448;2024-01-30T14:18:15;14.13;;;7.00;;
80315;SDS011;71201;47.064;15.448;2024-01-30T14:20:40;16.10;;;6.63;;
80315;SDS011;71201;47.064;15.448;2024-01-30T14:23:06;12.98;;;6.70;;
80315;SDS011;71201;47.064;15.448;2024-01-30T14:25:32;12.32;;;7.28;;
80315;SDS011;71201;47.064;15.448;2024-01-30T14:27:57;12.40;;;7.18;;
80315;SDS011;71201;47.064;15.448;2024-01-30T14:30:22;16.98;;;6.93;;
80315;SDS011;71201;47.064;15.448;2024-01-30T14:32:48;13.68;;;7.43;;
80315;SDS011;71201;47.064;15.448;2024-01-30T14:35:13;14.20;;;6.75;;
80315;SDS011;71201;47.064;15.448;2024-01-30T14:37:39;13.68;;;7.43;;
80315;SDS011;71201;47.064;15.448;2024-01-30T14:40:05;18.05;;;6.88;;
80315;SDS011;71201;47.064;15.448;2024-01-30T14:42:32;16.88;;;7.45;;
80315;SDS011;71201;47.064;15.448;2024-01-30T14:44:57;15.80;;;7.50;;
80315;SDS011;71201;47.064;15.448;2024-01-30T14:47:23;14.27;;;6.88;;
80315;SDS011;71201;47.064;15.448;2024-01-30T14:49:48;13.13;;;7.30;;
80315;SDS011;71201;47.064;15.448;2024-01-30T14:52:14;12.57;;;6.13;;
80315;SDS011;71201;47.064;15.448;2024-01-30T14:54:39;10.90;;;6.15;;
80315;SDS011;71201;47.064;15.448;2024-01-30T14:57:04;11.37;;;6.47;;
80315;SDS011;71201;47.064;15.448;2024-01-30T14:59:30;12.02;;;6.15;;
80315;SDS011;71201;47.064;15.448;2024-01-30T15:01:55;12.20;;;7.10;;
80315;SDS011;71201;47.064;15.448;2024-01-30T15:04:21;13.35;;;6.65;;
80315;SDS011;71201;47.064;15.448;2024-01-30T15:06:46;15.65;;;6.25;;
80315;SDS011;71201;47.064;15.448;2024-01-30T15:09:13;17.60;;;7.82;;
80315;SDS011;71201;47.064;15.448;2024-01-30T15:11:40;10.93;;;6.35;;
80315;SDS011;71201;47.064;15.448;2024-01-30T15:14:05;15.35;;;6.82;;
80315;SDS011;71201;47.064;15.448;2024-01-30T15:16:30;16.63;;;6.93;;
80315;SDS011;71201;47.064;15.448;2024-01-30T15:18:55;15.73;;;6.97;;
80315;SDS011;71201;47.064;15.448;2024-01-30T15:21:21;18.05;;;7.60;;
80315;SDS011;71201;47.064;15.448;2024-01-30T15:23:47;14.82;;;7.55;;
80315;SDS011;71201;47.064;15.448;2024-01-30T15:26:14;12.23;;;6.78;;
80315;SDS011;71201;47.064;15.448;2024-01-30T15:28:39;14.45;;;7.22;;
80315;SDS011;71201;47.064;15.448;2024-01-30T15:31:05;14.52;;;7.57;;
80315;SDS011;71201;47.064;15.448;2024-01-30T15:33:30;14.45;;;7.35;;
80315;SDS011;71201;47.064;15.448;2024-01-30T15:35:56;15.85;;;6.85;;
80315;SDS011;71201;47.064;15.448;2024-01-30T15:38:22;14.60;;;7.03;;
80315;SDS011;71201;47.064;15.448;2024-01-30T15:40:47;12.30;;;7.15;;
80315;SDS011;71201;47.064;15.448;2024-01-30T15:43:12;13.52;;;7.00;;
80315;SDS011;71201;47.064;15.448;2024-01-30T15:45:38;16.70;;;6.57;;
80315;SDS011;71201;47.064;15.448;2024-01-30T15:48:03;13.95;;;6.88;;
80315;SDS011;71201;47.064;15.448;2024-01-30T15:50:28;16.23;;;7.65;;
80315;SDS011;71201;47.064;15.448;2024-01-30T15:52:54;18.00;;;8.30;;
80315;SDS011;71201;47.064;15.448;2024-01-30T15:55:19;19.13;;;7.85;;
80315;SDS011;71201;47.064;15.448;2024-01-30T15:57:45;12.77;;;6.95;;
80315;SDS011;71201;47.064;15.448;2024-01-30T16:00:11;15.18;;;8.68;;
80315;SDS011;71201;47.064;15.448;2024-01-30T16:02:36;13.75;;;7.25;;
80315;SDS011;71201;47.064;15.448;2024-01-30T16:05:02;13.85;;;7.43;;
80315;SDS011;71201;47.064;15.448;2024-01-30T16:07:27;17.10;;;7.75;;
80315;SDS011;71201;47.064;15.448;2024-01-30T16:09:53;19.20;;;8.02;;
80315;SDS011;71201;47.064;15.448;2024-01-30T16:12:18;20.60;;;8.27;;
80315;SDS011;71201;47.064;15.448;2024-01-30T16:14:43;20.38;;;10.07;;
80315;SDS011;71201;47.064;15.448;2024-01-30T16:17:08;15.13;;;6.37;;
80315;SDS011;71201;47.064;15.448;2024-01-30T16:19:34;14.35;;;7.80;;
80315;SDS011;71201;47.064;15.448;2024-01-30T16:21:59;16.38;;;7.35;;
80315;SDS011;71201;47.064;15.448;2024-01-30T16:24:24;14.13;;;7.65;;
80315;SDS011;71201;47.064;15.448;2024-01-30T16:26:50;14.95;;;7.68;;
80315;SDS011;71201;47.064;15.448;2024-01-30T16:29:16;13.30;;;6.68;;
80315;SDS011;71201;47.064;15.448;2024-01-30T16:31:41;15.90;;;8.00;;
80315;SDS011;71201;47.064;15.448;2024-01-30T16:34:06;20.50;;;8.23;;
80315;SDS011;71201;47.064;15.448;2024-01-30T16:36:31;15.40;;;7.80;;
80315;SDS011;71201;47.064;15.448;2024-01-30T16:38:57;17.43;;;7.53;;
80315;SDS011;71201;47.064;15.448;2024-01-30T16:41:23;16.52;;;7.28;;
80315;SDS011;71201;47.064;15.448;2024-01-30T16:43:49;16.58;;;8.07;;
80315;SDS011;71201;47.064;15.448;2024-01-30T16:46:14;19.17;;;8.00;;
80315;SDS011;71201;47.064;15.448;2024-01-30T16:48:39;16.23;;;7.70;;
80315;SDS011;71201;47.064;15.448;2024-01-30T16:51:04;19.17;;;8.50;;
80315;SDS011;71201;47.064;15.448;2024-01-30T16:53:30;15.48;;;8.05;;
80315;SDS011;71201;47.064;15.448;2024-01-30T16:55:55;17.88;;;9.07;;
80315;SDS011;71201;47.064;15.448;2024-01-30T16:58:21;20.63;;;9.32;;
80315;SDS011;71201;47.064;15.448;2024-01-30T17:00:46;18.87;;;9.07;;
80315;SDS011;71201;47.064;15.448;2024-01-30T17:03:11;20.83;;;9.10;;
80315;SDS011;71201;47.064;15.448;2024-01-30T17:05:36;20.75;;;9.15;;
80315;SDS011;71201;47.064;15.448;2024-01-30T17:08:02;16.97;;;8.50;;
80315;SDS011;71201;47.064;15.448;2024-01-30T17:10:27;23.48;;;9.27;;
80315;SDS011;71201;47.064;15.448;2024-01-30T17:12:53;19.27;;;8.83;;
80315;SDS011;71201;47.064;15.448;2024-01-30T17:15:18;16.45;;;8.32;;
80315;SDS011;71201;47.064;15.448;2024-01-30T17:17:44;20.33;;;9.32;;
80315;SDS011;71201;47.064;15.448;2024-01-30T17:20:09;21.90;;;8.50;;
80315;SDS011;71201;47.064;15.448;2024-01-30T17:22:36;22.98;;;9.07;;
80315;SDS011;71201;47.064;15.448;2024-01-30T17:25:02;17.43;;;8.90;;
80315;SDS011;71201;47.064;15.448;2024-01-30T17:27:27;20.98;;;9.60;;
80315;SDS011;71201;47.064;15.448;2024-01-30T17:29:52;19.23;;;8.83;;
80315;SDS011;71201;47.064;15.448;2024-01-30T17:32:17;22.07;;;9.63;;
80315;SDS011;71201;47.064;15.448;2024-01-30T17:34:43;25.63;;;10.23;;
80315;SDS011;71201;47.064;15.448;2024-01-30T17:37:08;24.70;;;9.60;;
80315;SDS011;71201;47.064;15.448;2024-01-30T17:39:33;22.13;;;9.23;;
80315;SDS011;71201;47.064;15.448;2024-01-30T17:41:58;16.20;;;9.20;;
80315;SDS011;71201;47.064;15.448;2024-01-30T17:44:24;24.17;;;9.52;;
80315;SDS011;71201;47.064;15.448;2024-01-30T17:46:50;25.58;;;9.88;;
80315;SDS011;71201;47.064;15.448;2024-01-30T17:49:15;23.23;;;10.10;;
80315;SDS011;71201;47.064;15.448;2024-01-30T17:51:40;31.30;;;9.80;;
80315;SDS011;71201;47.064;15.448;2024-01-30T17:54:06;27.35;;;10.85;;
80315;SDS011;71201;47.064;15.448;2024-01-30T17:56:31;20.10;;;9.57;;
80315;SDS011;71201;47.064;15.448;2024-01-30T17:58:57;23.23;;;9.97;;
80315;SDS011;71201;47.064;15.448;2024-01-30T18:01:22;24.10;;;9.83;;
80315;SDS011;71201;47.064;15.448;2024-01-30T18:03:47;27.08;;;11.48;;
80315;SDS011;71201;47.064;15.448;2024-01-30T18:06:13;24.17;;;10.93;;
80315;SDS011;71201;47.064;15.448;2024-01-30T18:08:40;24.33;;;11.02;;
80315;SDS011;71201;47.064;15.448;2024-01-30T18:11:05;24.45;;;11.32;;
80315;SDS011;71201;47.064;15.448;2024-01-30T18:13:30;22.33;;;9.98;;